sensor_id;sensor_type;location;lat;lon;timestamp;P1;durP1;ratioP1;P2;durP2;ratioP2
78774;SDS011;68119;43.398;3.676;2024-03-17T00:02:01;5.75;;;2.30;;
78774;SDS011;68119;43.398;3.676;2024-03-17T00:04:29;6.75;;;2.55;;
78774;SDS011;68119;43.398;3.676;2024-03-17T00:06:58;8.65;;;2.63;;
78774;SDS011;68119;43.398;3.676;2024-03-17T00:09:27;6.22;;;2.35;;
78774;SDS011;68119;43.398;3.676;2024-03-17T00:11:56;5.85;;;2.50;;
78774;SDS011;68119;43.398;3.676;2024-03-17T00:14:27;9.13;;;2.80;;
78774;SDS011;68119;43.398;3.676;2024-03-17T00:17:03;6.38;;;2.95;;
78774;SDS011;68119;43.398;3.676;2024-03-17T00:19:30;5.50;;;2.80;;
78774;SDS011;68119;43.398;3.676;2024-03-17T00:21:56;5.35;;;2.92;;
78774;SDS011;68119;43.398;3.676;2024-03-17T00:24:22;7.40;;;3.17;;
78774;SDS011;68119;43.398;3.676;2024-03-17T00:26:49;7.70;;;3.40;;
78774;SDS011;68119;43.398;3.676;2024-03-17T00:29:18;6.40;;;3.13;;
78774;SDS011;68119;43.398;3.676;2024-03-17T00:31:47;7.38;;;3.65;;
78774;SDS011;68119;43.398;3.676;2024-03-17T00:36:58;6.95;;;3.40;;
78774;SDS011;68119;43.398;3.676;2024-03-17T00:39:27;6.13;;;2.85;;
78774;SDS011;68119;43.398;3.676;2024-03-17T00:41:53;5.35;;;2.85;;
78774;SDS011;68119;43.398;3.676;2024-03-17T00:44:22;8.65;;;3.35;;
78774;SDS011;68119;43.398;3.676;2024-03-17T00:49:28;6.15;;;2.80;;
78774;SDS011;68119;43.398;3.676;2024-03-17T00:52:02;9.70;;;2.75;;
78774;SDS011;68119;43.398;3.676;2024-03-17T00:54:31;12.15;;;3.13;;
78774;SDS011;68119;43.398;3.676;2024-03-17T00:57:02;5.38;;;2.40;;
78774;SDS011;68119;43.398;3.676;2024-03-17T00:59:30;7.40;;;2.78;;
78774;SDS011;68119;43.398;3.676;2024-03-17T01:01:59;7.03;;;2.65;;
78774;SDS011;68119;43.398;3.676;2024-03-17T01:07:06;7.10;;;2.45;;
78774;SDS011;68119;43.398;3.676;2024-03-17T01:09:32;6.45;;;2.53;;
78774;SDS011;68119;43.398;3.676;2024-03-17T01:12:01;6.80;;;2.85;;
78774;SDS011;68119;43.398;3.676;2024-03-17T01:14:30;7.07;;;2.40;;
78774;SDS011;68119;43.398;3.676;2024-03-17T01:17:04;8.35;;;2.67;;
78774;SDS011;68119;43.398;3.676;2024-03-17T01:19:30;7.68;;;2.55;;
78774;SDS011;68119;43.398;3.676;2024-03-17T01:22:00;7.93;;;2.75;;
78774;SDS011;68119;43.398;3.676;2024-03-17T01:24:31;8.60;;;2.65;;
78774;SDS011;68119;43.398;3.676;2024-03-17T01:27:01;6.70;;;2.60;;
78774;SDS011;68119;43.398;3.676;2024-03-17T01:29:30;6.82;;;2.88;;
78774;SDS011;68119;43.398;3.676;2024-03-17T01:32:01;8.00;;;3.03;;
78774;SDS011;68119;43.398;3.676;2024-03-17T01:34:32;14.10;;;2.90;;
78774;SDS011;68119;43.398;3.676;2024-03-17T01:42:38;7.78;;;2.90;;
78774;SDS011;68119;43.398;3.676;2024-03-17T01:45:47;8.45;;;2.80;;
78774;SDS011;68119;43.398;3.676;2024-03-17T01:47:57;7.32;;;2.60;;
78774;SDS011;68119;43.398;3.676;2024-03-17T01:50:34;7.15;;;2.53;;
78774;SDS011;68119;43.398;3.676;2024-03-17T01:53:04;7.07;;;2.47;;
78774;SDS011;68119;43.398;3.676;2024-03-17T01:55:37;4.95;;;2.13;;
78774;SDS011;68119;43.398;3.676;2024-03-17T02:01:03;5.63;;;2.53;;
78774;SDS011;68119;43.398;3.676;2024-03-17T02:03:32;8.23;;;3.17;;
78774;SDS011;68119;43.398;3.676;2024-03-17T02:06:01;7.50;;;2.67;;
78774;SDS011;68119;43.398;3.676;2024-03-17T02:08:31;5.28;;;2.22;;
78774;SDS011;68119;43.398;3.676;2024-03-17T02:11:24;6.70;;;2.50;;
78774;SDS011;68119;43.398;3.676;2024-03-17T02:13:53;8.98;;;2.85;;
78774;SDS011;68119;43.398;3.676;2024-03-17T02:19:21;8.75;;;3.22;;
78774;SDS011;68119;43.398;3.676;2024-03-17T02:21:50;7.78;;;2.88;;
78774;SDS011;68119;43.398;3.676;2024-03-17T02:27:13;4.85;;;2.35;;
78774;SDS011;68119;43.398;3.676;2024-03-17T02:29:39;8.73;;;3.00;;
78774;SDS011;68119;43.398;3.676;2024-03-17T02:32:11;6.68;;;2.80;;
78774;SDS011;68119;43.398;3.676;2024-03-17T02:34:39;6.72;;;2.60;;
78774;SDS011;68119;43.398;3.676;2024-03-17T02:37:06;6.63;;;2.60;;
78774;SDS011;68119;43.398;3.676;2024-03-17T02:39:35;7.60;;;2.60;;
78774;SDS011;68119;43.398;3.676;2024-03-17T02:42:07;7.97;;;2.50;;
78774;SDS011;68119;43.398;3.676;2024-03-17T02:44:46;8.77;;;2.63;;
78774;SDS011;68119;43.398;3.676;2024-03-17T02:47:13;7.72;;;2.80;;
78774;SDS011;68119;43.398;3.676;2024-03-17T02:49:39;6.38;;;2.50;;
78774;SDS011;68119;43.398;3.676;2024-03-17T02:52:11;8.57;;;2.70;;
78774;SDS011;68119;43.398;3.676;2024-03-17T02:54:49;7.15;;;2.40;;
78774;SDS011;68119;43.398;3.676;2024-03-17T02:57:18;5.63;;;2.10;;
78774;SDS011;68119;43.398;3.676;2024-03-17T03:02:16;8.07;;;2.33;;
78774;SDS011;68119;43.398;3.676;2024-03-17T03:04:46;4.53;;;2.08;;
78774;SDS011;68119;43.398;3.676;2024-03-17T03:07:14;6.93;;;2.63;;
78774;SDS011;68119;43.398;3.676;2024-03-17T03:09:44;5.47;;;2.20;;
78774;SDS011;68119;43.398;3.676;2024-03-17T03:12:12;7.18;;;2.55;;
78774;SDS011;68119;43.398;3.676;2024-03-17T03:14:41;6.55;;;2.50;;
78774;SDS011;68119;43.398;3.676;2024-03-17T03:17:15;6.30;;;2.03;;
78774;SDS011;68119;43.398;3.676;2024-03-17T03:19:46;5.13;;;2.42;;
78774;SDS011;68119;43.398;3.676;2024-03-17T03:22:12;7.60;;;2.20;;
78774;SDS011;68119;43.398;3.676;2024-03-17T03:24:39;4.68;;;2.20;;
78774;SDS011;68119;43.398;3.676;2024-03-17T03:27:05;5.85;;;2.63;;
78774;SDS011;68119;43.398;3.676;2024-03-17T03:29:36;5.53;;;2.50;;
78774;SDS011;68119;43.398;3.676;2024-03-17T03:32:05;6.78;;;2.70;;
78774;SDS011;68119;43.398;3.676;2024-03-17T03:34:33;7.95;;;2.63;;
78774;SDS011;68119;43.398;3.676;2024-03-17T03:37:02;5.55;;;2.55;;
78774;SDS011;68119;43.398;3.676;2024-03-17T03:39:31;7.05;;;2.47;;
78774;SDS011;68119;43.398;3.676;2024-03-17T03:42:02;7.20;;;2.50;;
78774;SDS011;68119;43.398;3.676;2024-03-17T03:44:46;4.68;;;2.15;;
78774;SDS011;68119;43.398;3.676;2024-03-17T03:47:14;6.35;;;2.78;;
78774;SDS011;68119;43.398;3.676;2024-03-17T03:49:41;5.45;;;2.25;;
78774;SDS011;68119;43.398;3.676;2024-03-17T03:52:09;7.10;;;2.60;;
78774;SDS011;68119;43.398;3.676;2024-03-17T03:54:45;9.32;;;3.05;;
78774;SDS011;68119;43.398;3.676;2024-03-17T03:57:16;5.15;;;2.40;;
78774;SDS011;68119;43.398;3.676;2024-03-17T03:59:47;6.03;;;2.33;;
78774;SDS011;68119;43.398;3.676;2024-03-17T04:02:13;7.22;;;2.50;;
78774;SDS011;68119;43.398;3.676;2024-03-17T04:04:40;6.63;;;2.50;;
78774;SDS011;68119;43.398;3.676;2024-03-17T04:07:06;3.78;;;2.05;;
78774;SDS011;68119;43.398;3.676;2024-03-17T04:09:35;5.28;;;2.20;;
78774;SDS011;68119;43.398;3.676;2024-03-17T04:12:05;4.47;;;2.08;;
78774;SDS011;68119;43.398;3.676;2024-03-17T04:14:32;8.73;;;2.60;;
78774;SDS011;68119;43.398;3.676;2024-03-17T04:17:01;12.02;;;2.55;;
78774;SDS011;68119;43.398;3.676;2024-03-17T04:19:37;6.75;;;2.50;;
78774;SDS011;68119;43.398;3.676;2024-03-17T04:22:06;6.60;;;2.28;;
78774;SDS011;68119;43.398;3.676;2024-03-17T04:24:41;14.10;;;12.65;;
78774;SDS011;68119;43.398;3.676;2024-03-17T04:27:10;13.98;;;12.70;;
78774;SDS011;68119;43.398;3.676;2024-03-17T04:29:46;13.93;;;12.77;;
78774;SDS011;68119;43.398;3.676;2024-03-17T04:32:15;12.38;;;11.25;;
78774;SDS011;68119;43.398;3.676;2024-03-17T04:34:42;11.27;;;10.27;;
78774;SDS011;68119;43.398;3.676;2024-03-17T04:37:09;11.93;;;10.80;;
78774;SDS011;68119;43.398;3.676;2024-03-17T04:39:44;10.77;;;9.75;;
78774;SDS011;68119;43.398;3.676;2024-03-17T04:42:13;13.02;;;11.73;;
78774;SDS011;68119;43.398;3.676;2024-03-17T04:44:44;10.45;;;9.52;;
78774;SDS011;68119;43.398;3.676;2024-03-17T04:47:10;12.45;;;11.02;;
78774;SDS011;68119;43.398;3.676;2024-03-17T04:49:50;11.20;;;10.27;;
78774;SDS011;68119;43.398;3.676;2024-03-17T04:52:16;30.20;;;4.40;;
78774;SDS011;68119;43.398;3.676;2024-03-17T04:54:52;6.75;;;2.20;;
78774;SDS011;68119;43.398;3.676;2024-03-17T04:57:20;5.05;;;2.13;;
78774;SDS011;68119;43.398;3.676;2024-03-17T04:59:49;7.47;;;2.20;;
78774;SDS011;68119;43.398;3.676;2024-03-17T05:02:19;4.20;;;2.20;;
78774;SDS011;68119;43.398;3.676;2024-03-17T05:04:51;5.78;;;2.33;;
78774;SDS011;68119;43.398;3.676;2024-03-17T05:07:18;4.70;;;1.92;;
78774;SDS011;68119;43.398;3.676;2024-03-17T05:09:49;7.10;;;2.35;;
78774;SDS011;68119;43.398;3.676;2024-03-17T05:15:08;4.97;;;1.88;;
78774;SDS011;68119;43.398;3.676;2024-03-17T05:17:38;7.15;;;2.60;;
78774;SDS011;68119;43.398;3.676;2024-03-17T05:23:02;6.63;;;2.10;;
78774;SDS011;68119;43.398;3.676;2024-03-17T05:25:29;5.07;;;2.15;;
78774;SDS011;68119;43.398;3.676;2024-03-17T05:27:57;7.88;;;2.25;;
78774;SDS011;68119;43.398;3.676;2024-03-17T05:30:26;4.97;;;2.22;;
78774;SDS011;68119;43.398;3.676;2024-03-17T05:32:55;6.13;;;2.45;;
78774;SDS011;68119;43.398;3.676;2024-03-17T05:35:23;7.53;;;2.78;;
78774;SDS011;68119;43.398;3.676;2024-03-17T05:38:09;6.20;;;2.33;;
78774;SDS011;68119;43.398;3.676;2024-03-17T05:43:35;5.70;;;2.25;;
78774;SDS011;68119;43.398;3.676;2024-03-17T05:46:04;7.07;;;2.78;;
78774;SDS011;68119;43.398;3.676;2024-03-17T05:48:34;5.88;;;2.13;;
78774;SDS011;68119;43.398;3.676;2024-03-17T05:53:52;6.55;;;2.38;;
78774;SDS011;68119;43.398;3.676;2024-03-17T05:56:27;10.75;;;2.67;;
78774;SDS011;68119;43.398;3.676;2024-03-17T05:58:53;6.65;;;2.53;;
78774;SDS011;68119;43.398;3.676;2024-03-17T06:01:22;7.07;;;2.10;;
78774;SDS011;68119;43.398;3.676;2024-03-17T06:03:50;5.85;;;2.47;;
78774;SDS011;68119;43.398;3.676;2024-03-17T06:06:22;6.10;;;1.92;;
78774;SDS011;68119;43.398;3.676;2024-03-17T06:08:51;5.00;;;2.10;;
78774;SDS011;68119;43.398;3.676;2024-03-17T06:11:35;5.70;;;2.25;;
78774;SDS011;68119;43.398;3.676;2024-03-17T06:14:14;6.07;;;2.53;;
78774;SDS011;68119;43.398;3.676;2024-03-17T06:16:40;6.10;;;2.53;;
78774;SDS011;68119;43.398;3.676;2024-03-17T06:19:14;6.28;;;2.50;;
78774;SDS011;68119;43.398;3.676;2024-03-17T06:21:52;5.13;;;2.30;;
78774;SDS011;68119;43.398;3.676;2024-03-17T06:24:21;4.60;;;2.10;;
78774;SDS011;68119;43.398;3.676;2024-03-17T06:26:50;8.98;;;2.33;;
78774;SDS011;68119;43.398;3.676;2024-03-17T06:32:14;6.28;;;2.30;;
78774;SDS011;68119;43.398;3.676;2024-03-17T06:34:45;6.00;;;2.20;;
78774;SDS011;68119;43.398;3.676;2024-03-17T06:37:19;6.45;;;2.60;;
78774;SDS011;68119;43.398;3.676;2024-03-17T06:39:48;4.18;;;1.85;;
78774;SDS011;68119;43.398;3.676;2024-03-17T06:42:17;4.93;;;2.20;;
78774;SDS011;68119;43.398;3.676;2024-03-17T06:47:47;9.60;;;2.78;;
78774;SDS011;68119;43.398;3.676;2024-03-17T06:53:05;6.88;;;2.60;;
78774;SDS011;68119;43.398;3.676;2024-03-17T06:55:43;7.72;;;2.75;;
78774;SDS011;68119;43.398;3.676;2024-03-17T06:58:13;7.80;;;2.40;;
78774;SDS011;68119;43.398;3.676;2024-03-17T07:01:00;6.32;;;2.70;;
78774;SDS011;68119;43.398;3.676;2024-03-17T07:03:43;13.45;;;3.10;;
78774;SDS011;68119;43.398;3.676;2024-03-17T07:06:10;6.93;;;2.63;;
78774;SDS011;68119;43.398;3.676;2024-03-17T07:08:48;6.22;;;2.60;;
78774;SDS011;68119;43.398;3.676;2024-03-17T07:11:17;6.68;;;2.78;;
78774;SDS011;68119;43.398;3.676;2024-03-17T07:13:46;8.98;;;3.00;;
78774;SDS011;68119;43.398;3.676;2024-03-17T07:19:20;7.22;;;2.97;;
78774;SDS011;68119;43.398;3.676;2024-03-17T07:21:49;7.78;;;2.80;;
78774;SDS011;68119;43.398;3.676;2024-03-17T07:27:21;7.70;;;2.70;;
78774;SDS011;68119;43.398;3.676;2024-03-17T07:29:47;7.25;;;2.85;;
78774;SDS011;68119;43.398;3.676;2024-03-17T07:32:16;7.35;;;2.85;;
78774;SDS011;68119;43.398;3.676;2024-03-17T07:34:48;6.35;;;2.50;;
78774;SDS011;68119;43.398;3.676;2024-03-17T07:37:17;6.30;;;2.92;;
78774;SDS011;68119;43.398;3.676;2024-03-17T07:39:51;8.98;;;3.05;;
78774;SDS011;68119;43.398;3.676;2024-03-17T07:42:17;16.63;;;4.25;;
78774;SDS011;68119;43.398;3.676;2024-03-17T07:47:31;6.93;;;2.90;;
78774;SDS011;68119;43.398;3.676;2024-03-17T07:50:06;5.50;;;2.70;;
78774;SDS011;68119;43.398;3.676;2024-03-17T07:52:34;5.90;;;2.67;;
78774;SDS011;68119;43.398;3.676;2024-03-17T07:55:00;6.47;;;2.78;;
78774;SDS011;68119;43.398;3.676;2024-03-17T07:57:27;7.50;;;3.05;;
78774;SDS011;68119;43.398;3.676;2024-03-17T08:00:02;7.70;;;3.28;;
78774;SDS011;68119;43.398;3.676;2024-03-17T08:02:41;6.43;;;2.85;;
78774;SDS011;68119;43.398;3.676;2024-03-17T08:08:00;6.03;;;3.08;;
78774;SDS011;68119;43.398;3.676;2024-03-17T08:10:35;7.78;;;2.78;;
78774;SDS011;68119;43.398;3.676;2024-03-17T08:13:05;5.25;;;2.67;;
78774;SDS011;68119;43.398;3.676;2024-03-17T08:15:41;6.57;;;2.85;;
78774;SDS011;68119;43.398;3.676;2024-03-17T08:18:12;9.82;;;3.15;;
78774;SDS011;68119;43.398;3.676;2024-03-17T08:20:41;4.90;;;2.35;;
78774;SDS011;68119;43.398;3.676;2024-03-17T08:23:12;6.60;;;2.65;;
78774;SDS011;68119;43.398;3.676;2024-03-17T08:25:51;5.80;;;3.08;;
78774;SDS011;68119;43.398;3.676;2024-03-17T08:28:17;6.35;;;2.67;;
78774;SDS011;68119;43.398;3.676;2024-03-17T08:30:56;5.75;;;2.53;;
78774;SDS011;68119;43.398;3.676;2024-03-17T08:36:12;5.63;;;2.60;;
78774;SDS011;68119;43.398;3.676;2024-03-17T08:38:44;5.47;;;2.70;;
78774;SDS011;68119;43.398;3.676;2024-03-17T08:41:14;8.15;;;3.42;;
78774;SDS011;68119;43.398;3.676;2024-03-17T08:43:41;8.93;;;3.00;;
78774;SDS011;68119;43.398;3.676;2024-03-17T08:46:08;7.65;;;2.60;;
78774;SDS011;68119;43.398;3.676;2024-03-17T08:48:36;5.03;;;2.42;;
78774;SDS011;68119;43.398;3.676;2024-03-17T08:51:09;5.32;;;2.63;;
78774;SDS011;68119;43.398;3.676;2024-03-17T08:53:38;7.13;;;2.92;;
78774;SDS011;68119;43.398;3.676;2024-03-17T08:59:10;6.70;;;3.00;;
78774;SDS011;68119;43.398;3.676;2024-03-17T09:01:47;5.13;;;2.67;;
78774;SDS011;68119;43.398;3.676;2024-03-17T09:04:16;6.50;;;2.85;;
78774;SDS011;68119;43.398;3.676;2024-03-17T09:09:58;6.70;;;2.45;;
78774;SDS011;68119;43.398;3.676;2024-03-17T09:14:56;9.15;;;3.00;;
78774;SDS011;68119;43.398;3.676;2024-03-17T09:17:26;7.82;;;2.75;;
78774;SDS011;68119;43.398;3.676;2024-03-17T09:22:47;5.85;;;2.42;;
78774;SDS011;68119;43.398;3.676;2024-03-17T09:25:16;7.13;;;2.47;;
78774;SDS011;68119;43.398;3.676;2024-03-17T09:27:44;6.75;;;2.50;;
78774;SDS011;68119;43.398;3.676;2024-03-17T09:30:11;7.05;;;2.60;;
78774;SDS011;68119;43.398;3.676;2024-03-17T09:35:22;5.57;;;2.45;;
78774;SDS011;68119;43.398;3.676;2024-03-17T09:37:48;5.50;;;2.40;;
78774;SDS011;68119;43.398;3.676;2024-03-17T09:40:24;6.82;;;2.22;;
78774;SDS011;68119;43.398;3.676;2024-03-17T09:43:01;8.27;;;2.95;;
78774;SDS011;68119;43.398;3.676;2024-03-17T09:45:32;8.15;;;2.60;;
78774;SDS011;68119;43.398;3.676;2024-03-17T09:48:04;7.68;;;2.47;;
78774;SDS011;68119;43.398;3.676;2024-03-17T09:50:49;7.82;;;2.88;;
78774;SDS011;68119;43.398;3.676;2024-03-17T09:53:22;7.30;;;2.55;;
78774;SDS011;68119;43.398;3.676;2024-03-17T09:58:42;7.85;;;2.40;;
78774;SDS011;68119;43.398;3.676;2024-03-17T10:01:28;8.98;;;2.72;;
78774;SDS011;68119;43.398;3.676;2024-03-17T10:04:12;6.78;;;2.72;;
78774;SDS011;68119;43.398;3.676;2024-03-17T10:06:45;7.28;;;2.65;;
78774;SDS011;68119;43.398;3.676;2024-03-17T10:09:16;6.70;;;2.60;;
78774;SDS011;68119;43.398;3.676;2024-03-17T10:12:04;6.47;;;2.60;;
78774;SDS011;68119;43.398;3.676;2024-03-17T10:14:35;6.78;;;2.40;;
78774;SDS011;68119;43.398;3.676;2024-03-17T10:17:03;7.05;;;2.83;;
78774;SDS011;68119;43.398;3.676;2024-03-17T10:19:33;4.53;;;2.45;;
78774;SDS011;68119;43.398;3.676;2024-03-17T10:22:11;8.68;;;2.53;;
78774;SDS011;68119;43.398;3.676;2024-03-17T10:24:59;6.30;;;2.50;;
78774;SDS011;68119;43.398;3.676;2024-03-17T10:27:28;5.32;;;2.78;;
78774;SDS011;68119;43.398;3.676;2024-03-17T10:30:02;9.95;;;2.72;;
78774;SDS011;68119;43.398;3.676;2024-03-17T10:32:39;8.13;;;2.90;;
78774;SDS011;68119;43.398;3.676;2024-03-17T10:35:28;7.05;;;2.72;;
78774;SDS011;68119;43.398;3.676;2024-03-17T10:38:09;9.68;;;3.13;;
78774;SDS011;68119;43.398;3.676;2024-03-17T10:43:36;5.78;;;2.50;;
78774;SDS011;68119;43.398;3.676;2024-03-17T10:46:05;8.52;;;3.03;;
78774;SDS011;68119;43.398;3.676;2024-03-17T10:51:57;6.35;;;2.80;;
78774;SDS011;68119;43.398;3.676;2024-03-17T10:57:31;5.47;;;2.65;;
78774;SDS011;68119;43.398;3.676;2024-03-17T11:03:11;9.18;;;3.47;;
78774;SDS011;68119;43.398;3.676;2024-03-17T11:05:45;9.85;;;3.28;;
78774;SDS011;68119;43.398;3.676;2024-03-17T11:08:18;6.28;;;2.65;;
78774;SDS011;68119;43.398;3.676;2024-03-17T11:11:08;6.60;;;2.70;;
78774;SDS011;68119;43.398;3.676;2024-03-17T11:16:53;5.77;;;2.83;;
78774;SDS011;68119;43.398;3.676;2024-03-17T11:22:45;7.57;;;2.75;;
78774;SDS011;68119;43.398;3.676;2024-03-17T11:40:22;8.48;;;2.97;;
78774;SDS011;68119;43.398;3.676;2024-03-17T11:45:43;6.25;;;2.80;;
78774;SDS011;68119;43.398;3.676;2024-03-17T11:48:12;7.78;;;2.60;;
78774;SDS011;68119;43.398;3.676;2024-03-17T11:51:03;8.02;;;3.20;;
78774;SDS011;68119;43.398;3.676;2024-03-17T11:56:37;6.00;;;2.38;;
78774;SDS011;68119;43.398;3.676;2024-03-17T12:07:47;5.95;;;2.75;;
78774;SDS011;68119;43.398;3.676;2024-03-17T12:16:31;7.03;;;2.80;;
78774;SDS011;68119;43.398;3.676;2024-03-17T12:19:08;7.93;;;2.95;;
78774;SDS011;68119;43.398;3.676;2024-03-17T12:21:35;8.93;;;3.35;;
78774;SDS011;68119;43.398;3.676;2024-03-17T12:24:11;7.18;;;3.03;;
78774;SDS011;68119;43.398;3.676;2024-03-17T12:26:43;7.45;;;3.10;;
78774;SDS011;68119;43.398;3.676;2024-03-17T12:32:06;9.23;;;2.85;;
78774;SDS011;68119;43.398;3.676;2024-03-17T12:34:35;7.05;;;2.95;;
78774;SDS011;68119;43.398;3.676;2024-03-17T12:37:06;7.20;;;3.30;;
78774;SDS011;68119;43.398;3.676;2024-03-17T12:39:40;8.38;;;2.97;;
78774;SDS011;68119;43.398;3.676;2024-03-17T12:42:10;9.32;;;3.17;;
78774;SDS011;68119;43.398;3.676;2024-03-17T12:44:46;10.38;;;2.83;;
78774;SDS011;68119;43.398;3.676;2024-03-17T12:50:16;7.47;;;3.42;;
78774;SDS011;68119;43.398;3.676;2024-03-17T12:52:52;7.38;;;2.88;;
78774;SDS011;68119;43.398;3.676;2024-03-17T12:55:20;7.85;;;3.00;;
78774;SDS011;68119;43.398;3.676;2024-03-17T12:58:09;7.85;;;3.05;;
78774;SDS011;68119;43.398;3.676;2024-03-17T13:01:05;7.45;;;3.20;;
78774;SDS011;68119;43.398;3.676;2024-03-17T13:03:35;8.48;;;3.17;;
78774;SDS011;68119;43.398;3.676;2024-03-17T13:06:02;7.85;;;3.15;;
78774;SDS011;68119;43.398;3.676;2024-03-17T13:08:34;7.63;;;3.20;;
78774;SDS011;68119;43.398;3.676;2024-03-17T13:11:06;6.35;;;2.72;;
78774;SDS011;68119;43.398;3.676;2024-03-17T13:16:00;6.97;;;2.65;;
78774;SDS011;68119;43.398;3.676;2024-03-17T13:18:47;8.35;;;2.67;;
78774;SDS011;68119;43.398;3.676;2024-03-17T13:21:16;10.32;;;3.00;;
78774;SDS011;68119;43.398;3.676;2024-03-17T13:27:08;7.50;;;2.67;;
78774;SDS011;68119;43.398;3.676;2024-03-17T13:32:25;8.48;;;2.92;;
78774;SDS011;68119;43.398;3.676;2024-03-17T13:34:54;5.93;;;2.53;;
78774;SDS011;68119;43.398;3.676;2024-03-17T13:40:31;8.52;;;2.83;;
78774;SDS011;68119;43.398;3.676;2024-03-17T13:43:01;7.32;;;2.90;;
78774;SDS011;68119;43.398;3.676;2024-03-17T13:54:25;8.10;;;3.25;;
78774;SDS011;68119;43.398;3.676;2024-03-17T13:56:53;9.50;;;3.50;;
78774;SDS011;68119;43.398;3.676;2024-03-17T13:59:22;8.98;;;3.30;;
78774;SDS011;68119;43.398;3.676;2024-03-17T14:04:50;6.70;;;2.88;;
78774;SDS011;68119;43.398;3.676;2024-03-17T14:07:19;8.32;;;3.35;;
78774;SDS011;68119;43.398;3.676;2024-03-17T14:09:59;7.95;;;2.80;;
78774;SDS011;68119;43.398;3.676;2024-03-17T14:28:07;6.45;;;3.10;;
78774;SDS011;68119;43.398;3.676;2024-03-17T14:30:48;9.57;;;3.28;;
78774;SDS011;68119;43.398;3.676;2024-03-17T14:33:17;7.25;;;3.10;;
78774;SDS011;68119;43.398;3.676;2024-03-17T14:38:53;8.55;;;3.08;;
78774;SDS011;68119;43.398;3.676;2024-03-17T14:41:22;7.78;;;3.70;;
78774;SDS011;68119;43.398;3.676;2024-03-17T14:43:48;9.07;;;3.53;;
78774;SDS011;68119;43.398;3.676;2024-03-17T14:52:16;12.35;;;3.53;;
78774;SDS011;68119;43.398;3.676;2024-03-17T15:00:41;9.88;;;3.47;;
78774;SDS011;68119;43.398;3.676;2024-03-17T15:03:14;6.70;;;3.25;;
78774;SDS011;68119;43.398;3.676;2024-03-17T15:05:45;9.27;;;3.40;;
78774;SDS011;68119;43.398;3.676;2024-03-17T15:08:17;7.30;;;3.40;;
78774;SDS011;68119;43.398;3.676;2024-03-17T15:10:44;9.88;;;3.80;;
78774;SDS011;68119;43.398;3.676;2024-03-17T15:13:10;9.23;;;3.55;;
78774;SDS011;68119;43.398;3.676;2024-03-17T15:21:40;8.30;;;3.65;;
78774;SDS011;68119;43.398;3.676;2024-03-17T15:30:19;8.13;;;2.83;;
78774;SDS011;68119;43.398;3.676;2024-03-17T15:33:08;8.10;;;3.28;;
78774;SDS011;68119;43.398;3.676;2024-03-17T15:35:37;7.15;;;2.95;;
78774;SDS011;68119;43.398;3.676;2024-03-17T15:38:08;12.98;;;3.70;;
78774;SDS011;68119;43.398;3.676;2024-03-17T15:40:37;8.27;;;3.60;;
78774;SDS011;68119;43.398;3.676;2024-03-17T15:43:07;8.73;;;3.20;;
78774;SDS011;68119;43.398;3.676;2024-03-17T15:45:40;7.43;;;3.45;;
78774;SDS011;68119;43.398;3.676;2024-03-17T15:48:09;12.52;;;3.63;;
78774;SDS011;68119;43.398;3.676;2024-03-17T15:50:38;10.40;;;4.70;;
78774;SDS011;68119;43.398;3.676;2024-03-17T15:53:22;12.85;;;6.32;;
78774;SDS011;68119;43.398;3.676;2024-03-17T16:30:14;9.82;;;4.32;;
78774;SDS011;68119;43.398;3.676;2024-03-17T16:44:57;12.63;;;4.35;;
78774;SDS011;68119;43.398;3.676;2024-03-17T16:47:47;10.23;;;3.97;;
78774;SDS011;68119;43.398;3.676;2024-03-17T16:50:15;10.07;;;4.00;;
78774;SDS011;68119;43.398;3.676;2024-03-17T17:05:28;10.88;;;4.53;;
78774;SDS011;68119;43.398;3.676;2024-03-17T17:26:18;13.73;;;4.90;;
78774;SDS011;68119;43.398;3.676;2024-03-17T17:31:37;11.68;;;5.47;;
78774;SDS011;68119;43.398;3.676;2024-03-17T17:34:04;14.55;;;6.70;;
78774;SDS011;68119;43.398;3.676;2024-03-17T17:39:24;13.25;;;5.63;;
78774;SDS011;68119;43.398;3.676;2024-03-17T17:41:59;12.48;;;6.30;;
78774;SDS011;68119;43.398;3.676;2024-03-17T17:44:34;12.93;;;6.20;;
78774;SDS011;68119;43.398;3.676;2024-03-17T17:47:09;14.73;;;6.40;;
78774;SDS011;68119;43.398;3.676;2024-03-17T17:49:49;17.23;;;8.65;;
78774;SDS011;68119;43.398;3.676;2024-03-17T17:52:21;15.73;;;7.90;;
78774;SDS011;68119;43.398;3.676;2024-03-17T17:57:51;14.07;;;6.53;;
78774;SDS011;68119;43.398;3.676;2024-03-17T18:00:38;16.80;;;6.57;;
78774;SDS011;68119;43.398;3.676;2024-03-17T18:03:07;11.40;;;7.28;;
78774;SDS011;68119;43.398;3.676;2024-03-17T18:08:41;17.67;;;6.97;;
78774;SDS011;68119;43.398;3.676;2024-03-17T18:14:23;17.95;;;8.30;;
78774;SDS011;68119;43.398;3.676;2024-03-17T18:17:07;18.17;;;10.38;;
78774;SDS011;68119;43.398;3.676;2024-03-17T18:19:36;19.48;;;10.07;;
78774;SDS011;68119;43.398;3.676;2024-03-17T18:22:25;21.52;;;9.77;;
78774;SDS011;68119;43.398;3.676;2024-03-17T18:24:52;18.05;;;9.50;;
78774;SDS011;68119;43.398;3.676;2024-03-17T18:27:23;17.58;;;8.38;;
78774;SDS011;68119;43.398;3.676;2024-03-17T18:29:52;17.08;;;8.60;;
78774;SDS011;68119;43.398;3.676;2024-03-17T18:32:38;19.45;;;7.65;;
78774;SDS011;68119;43.398;3.676;2024-03-17T18:38:05;16.75;;;8.45;;
78774;SDS011;68119;43.398;3.676;2024-03-17T18:43:44;13.77;;;7.53;;
78774;SDS011;68119;43.398;3.676;2024-03-17T18:46:20;15.20;;;7.32;;
78774;SDS011;68119;43.398;3.676;2024-03-17T18:51:39;14.82;;;7.47;;
78774;SDS011;68119;43.398;3.676;2024-03-17T18:54:14;20.10;;;7.80;;
78774;SDS011;68119;43.398;3.676;2024-03-17T18:56:47;13.93;;;7.03;;
78774;SDS011;68119;43.398;3.676;2024-03-17T18:59:20;16.60;;;7.60;;
78774;SDS011;68119;43.398;3.676;2024-03-17T19:04:39;18.98;;;7.90;;
78774;SDS011;68119;43.398;3.676;2024-03-17T19:07:18;16.02;;;7.47;;
78774;SDS011;68119;43.398;3.676;2024-03-17T19:09:49;15.30;;;6.85;;
78774;SDS011;68119;43.398;3.676;2024-03-17T19:14:54;13.95;;;7.10;;
78774;SDS011;68119;43.398;3.676;2024-03-17T19:17:26;15.88;;;7.85;;
78774;SDS011;68119;43.398;3.676;2024-03-17T19:20:07;17.70;;;8.73;;
78774;SDS011;68119;43.398;3.676;2024-03-17T19:22:41;17.92;;;7.72;;
78774;SDS011;68119;43.398;3.676;2024-03-17T19:25:14;13.32;;;7.45;;
78774;SDS011;68119;43.398;3.676;2024-03-17T19:27:43;15.98;;;8.25;;
78774;SDS011;68119;43.398;3.676;2024-03-17T19:30:18;14.60;;;7.45;;
78774;SDS011;68119;43.398;3.676;2024-03-17T19:32:49;18.58;;;8.18;;
78774;SDS011;68119;43.398;3.676;2024-03-17T19:35:31;15.30;;;7.00;;
78774;SDS011;68119;43.398;3.676;2024-03-17T19:38:03;13.25;;;6.45;;
78774;SDS011;68119;43.398;3.676;2024-03-17T19:40:34;15.27;;;6.95;;
78774;SDS011;68119;43.398;3.676;2024-03-17T19:46:03;15.93;;;7.00;;
78774;SDS011;68119;43.398;3.676;2024-03-17T19:51:49;16.95;;;6.40;;
78774;SDS011;68119;43.398;3.676;2024-03-17T19:54:17;16.48;;;7.60;;
78774;SDS011;68119;43.398;3.676;2024-03-17T19:56:46;17.08;;;7.22;;
78774;SDS011;68119;43.398;3.676;2024-03-17T20:02:18;20.90;;;7.07;;
78774;SDS011;68119;43.398;3.676;2024-03-17T20:07:54;15.77;;;7.45;;
78774;SDS011;68119;43.398;3.676;2024-03-17T20:13:25;15.63;;;8.80;;
78774;SDS011;68119;43.398;3.676;2024-03-17T20:19:00;17.30;;;8.48;;
78774;SDS011;68119;43.398;3.676;2024-03-17T20:24:30;15.73;;;7.85;;
78774;SDS011;68119;43.398;3.676;2024-03-17T20:30:09;19.08;;;8.38;;
78774;SDS011;68119;43.398;3.676;2024-03-17T20:38:54;34.33;;;12.98;;
78774;SDS011;68119;43.398;3.676;2024-03-17T20:41:23;23.10;;;12.32;;
78774;SDS011;68119;43.398;3.676;2024-03-17T20:46:55;20.48;;;11.55;;
78774;SDS011;68119;43.398;3.676;2024-03-17T20:49:29;22.25;;;12.70;;
78774;SDS011;68119;43.398;3.676;2024-03-17T20:52:01;25.35;;;11.65;;
78774;SDS011;68119;43.398;3.676;2024-03-17T20:57:32;18.85;;;10.07;;